Time;durP1;ratioP1;P1;durP2;ratioP2;P2;SDS_P1;SDS_P2;PMS_P1;PMS_P2;Temp;Humidity;BMP_temperature;BMP_pressure;BME280_temperature;BME280_humidity;BME280_pressure;Samples;Min_cycle;Max_cycle;Signal;HPM_P1;HPM_P2
2023/12/06 00:01:07;;;;;;;64.22;43.25;;;1.00;99.90;;;;;;7373192;19;20078;-57
2023/12/06 00:03:34;;;;;;;63.00;42.65;;;1.00;99.90;;;;;;7369258;19;20102;-57
2023/12/06 00:06:00;;;;;;;62.83;42.65;;;1.00;99.90;;;;;;7372635;19;20034;-57
2023/12/06 00:08:26;;;;;;;62.08;42.45;;;1.00;99.90;;;;;;7370032;19;20505;-57
2023/12/06 00:10:52;;;;;;;65.75;43.00;;;1.00;99.90;;;;;;7372010;19;20043;-56
2023/12/06 00:13:19;;;;;;;63.20;42.40;;;1.00;99.90;;;;;;7370142;19;20025;-57
2023/12/06 00:15:45;;;;;;;60.15;42.92;;;1.00;99.90;;;;;;7368601;19;20824;-58
2023/12/06 00:18:12;;;;;;;64.85;43.22;;;1.00;99.90;;;;;;7374700;19;20014;-57
2023/12/06 00:20:38;;;;;;;66.47;44.67;;;1.00;99.90;;;;;;7379745;19;20022;-58
2023/12/06 00:23:04;;;;;;;59.47;40.90;;;1.00;99.90;;;;;;7381152;19;20634;-58
2023/12/06 00:25:30;;;;;;;68.50;44.60;;;1.00;99.90;;;;;;7374652;19;20043;-58
2023/12/06 00:27:56;;;;;;;66.38;43.28;;;1.00;99.90;;;;;;7378844;19;20039;-58
2023/12/06 00:30:43;;;;;;;69.40;45.38;;;1.00;99.90;;;;;;7372082;19;20381;-58
2023/12/06 00:33:09;;;;;;;63.45;42.85;;;1.00;99.90;;;;;;7380357;19;20090;-58
2023/12/06 00:35:35;;;;;;;69.63;44.88;;;1.00;99.90;;;;;;7372238;19;20558;-58
2023/12/06 00:38:02;;;;;;;65.70;44.25;;;1.00;99.90;;;;;;7375539;19;20131;-58
2023/12/06 00:40:28;;;;;;;69.65;45.90;;;1.10;99.90;;;;;;7373836;19;20036;-58
2023/12/06 00:42:54;;;;;;;69.80;47.92;;;1.00;99.90;;;;;;7376990;19;20861;-59
2023/12/06 00:45:20;;;;;;;67.32;44.72;;;1.00;99.90;;;;;;7375248;19;20786;-57
2023/12/06 00:47:50;;;;;;;69.45;45.38;;;1.10;99.90;;;;;;7380346;19;20411;-57
2023/12/06 00:50:16;;;;;;;73.22;46.00;;;1.00;99.90;;;;;;7371078;19;20470;-57
2023/12/06 00:52:42;;;;;;;69.50;47.10;;;1.00;99.90;;;;;;7375825;19;20887;-58
2023/12/06 00:55:08;;;;;;;68.30;46.15;;;1.10;99.90;;;;;;7375145;19;20014;-58
2023/12/06 00:57:55;;;;;;;76.82;47.95;;;1.00;99.90;;;;;;7375807;19;20018;-58
2023/12/06 01:00:21;;;;;;;77.07;47.78;;;1.10;99.90;;;;;;7376529;19;20118;-58
2023/12/06 01:02:48;;;;;;;73.25;45.38;;;1.10;99.90;;;;;;7374542;19;20102;-57
2023/12/06 01:05:14;;;;;;;73.78;49.45;;;1.10;99.90;;;;;;7372127;19;20484;-57
2023/12/06 01:07:40;;;;;;;74.40;47.13;;;1.10;99.90;;;;;;7376318;19;20114;-57
2023/12/06 01:10:08;;;;;;;72.45;46.78;;;1.10;99.90;;;;;;7377009;19;20055;-57
2023/12/06 01:12:35;;;;;;;76.28;46.63;;;1.10;99.90;;;;;;7370998;19;20436;-60
2023/12/06 01:15:05;;;;;;;76.05;48.88;;;1.10;99.90;;;;;;7376646;19;20022;-58
2023/12/06 01:17:32;;;;;;;74.07;47.05;;;1.10;99.90;;;;;;7369159;19;20656;-58
2023/12/06 01:19:59;;;;;;;75.57;49.22;;;1.10;99.90;;;;;;7376103;19;20085;-58
2023/12/06 01:22:25;;;;;;;71.97;44.63;;;1.10;99.90;;;;;;7372374;19;20032;-57
2023/12/06 01:24:59;;;;;;;77.57;47.38;;;1.10;99.90;;;;;;7379625;19;20094;-57
2023/12/06 01:27:25;;;;;;;75.13;46.63;;;1.10;99.90;;;;;;7372030;19;20014;-58
2023/12/06 01:29:51;;;;;;;89.13;51.17;;;1.10;99.90;;;;;;7377644;19;20022;-57
2023/12/06 01:32:18;;;;;;;80.65;47.60;;;1.10;99.90;;;;;;7373461;19;20018;-57
2023/12/06 01:34:44;;;;;;;79.22;47.85;;;1.10;99.90;;;;;;7373888;19;20029;-57
2023/12/06 01:37:10;;;;;;;75.82;48.05;;;1.10;99.90;;;;;;7373975;19;20035;-57
2023/12/06 01:39:37;;;;;;;77.30;47.72;;;1.10;99.90;;;;;;7370547;19;20018;-57
2023/12/06 01:42:03;;;;;;;79.25;48.00;;;1.10;99.90;;;;;;7374680;19;20838;-57
2023/12/06 01:44:29;;;;;;;78.63;48.80;;;1.10;99.90;;;;;;7376447;19;20018;-57
2023/12/06 01:46:55;;;;;;;79.20;47.92;;;1.10;99.90;;;;;;7375856;19;20082;-59
2023/12/06 01:49:22;;;;;;;85.55;50.17;;;1.10;99.90;;;;;;7372670;19;20022;-58
2023/12/06 01:51:48;;;;;;;83.43;48.22;;;1.10;99.90;;;;;;7372010;19;20031;-58
2023/12/06 01:54:15;;;;;;;83.78;48.25;;;1.20;99.90;;;;;;7375250;19;20010;-58
2023/12/06 01:56:47;;;;;;;80.18;49.00;;;1.10;99.90;;;;;;7374314;19;20517;-57
2023/12/06 01:59:14;;;;;;;80.75;48.28;;;1.10;99.90;;;;;;7371427;19;20022;-57
2023/12/06 02:01:40;;;;;;;80.47;48.15;;;1.10;99.90;;;;;;7376274;19;20580;-58
2023/12/06 02:04:07;;;;;;;84.80;47.67;;;1.10;99.90;;;;;;7376520;19;20014;-57
2023/12/06 02:06:34;;;;;;;86.22;49.15;;;1.10;99.90;;;;;;7373132;19;20372;-57
2023/12/06 02:09:02;;;;;;;85.57;48.75;;;1.20;99.90;;;;;;7376180;19;20022;-59
2023/12/06 02:11:28;;;;;;;89.43;49.17;;;1.10;99.90;;;;;;7374367;19;20026;-59
2023/12/06 02:13:55;;;;;;;88.35;50.85;;;1.10;99.90;;;;;;7372296;19;20018;-59
2023/12/06 02:16:21;;;;;;;92.88;50.08;;;1.10;99.90;;;;;;7372311;19;20022;-59
2023/12/06 02:18:47;;;;;;;91.18;49.17;;;1.20;99.90;;;;;;7373503;19;20015;-60
2023/12/06 02:21:13;;;;;;;89.60;48.00;;;1.10;99.90;;;;;;7369853;19;20015;-60
2023/12/06 02:23:43;;;;;;;90.55;51.05;;;1.10;99.90;;;;;;7373942;19;20018;-59
2023/12/06 02:26:09;;;;;;;91.43;51.67;;;1.20;99.90;;;;;;7376058;19;20090;-59
2023/12/06 02:28:35;;;;;;;91.63;50.35;;;1.10;99.90;;;;;;7371444;19;20019;-60
2023/12/06 02:31:21;;;;;;;92.90;50.97;;;1.10;99.90;;;;;;7366447;19;20060;-60
2023/12/06 02:33:50;;;;;;;86.85;48.10;;;1.20;99.90;;;;;;7375067;19;20362;-59
2023/12/06 02:36:18;;;;;;;86.35;49.15;;;1.20;99.90;;;;;;7373881;19;20014;-59
2023/12/06 02:38:45;;;;;;;87.05;48.75;;;1.10;99.90;;;;;;7370979;19;20022;-60
2023/12/06 02:41:16;;;;;;;86.93;48.60;;;1.20;99.90;;;;;;7373411;19;20029;-60
2023/12/06 02:43:44;;;;;;;86.45;48.60;;;1.20;99.90;;;;;;7374797;19;20039;-59
2023/12/06 02:46:12;;;;;;;83.68;46.80;;;1.20;99.90;;;;;;7370194;19;20022;-59
2023/12/06 02:48:38;;;;;;;79.32;46.65;;;1.20;99.90;;;;;;7370909;19;20030;-60
2023/12/06 02:51:05;;;;;;;84.63;48.38;;;1.20;99.90;;;;;;7374598;19;20019;-58
2023/12/06 02:53:31;;;;;;;88.13;47.15;;;1.20;99.90;;;;;;7373042;19;20374;-57
2023/12/06 02:55:57;;;;;;;77.80;45.08;;;1.20;99.90;;;;;;7370279;19;20483;-57
2023/12/06 02:58:43;;;;;;;81.45;46.30;;;1.20;99.90;;;;;;7371071;19;20123;-57
2023/12/06 03:01:09;;;;;;;78.28;44.67;;;1.20;99.90;;;;;;7372508;19;20094;-59
2023/12/06 03:03:36;;;;;;;77.50;45.00;;;1.20;99.90;;;;;;7374998;19;20619;-59
2023/12/06 03:06:03;;;;;;;81.28;47.17;;;1.20;99.90;;;;;;7371299;19;20070;-59
2023/12/06 03:08:29;;;;;;;77.53;44.92;;;1.20;99.90;;;;;;7375934;19;20028;-59
2023/12/06 03:10:56;;;;;;;74.38;44.47;;;1.20;99.90;;;;;;7369162;19;20018;-59
2023/12/06 03:13:22;;;;;;;78.63;44.85;;;1.20;99.90;;;;;;7373030;19;20026;-59
2023/12/06 03:16:08;;;;;;;69.97;43.67;;;1.20;99.90;;;;;;7371410;19;20056;-59
2023/12/06 03:18:35;;;;;;;73.88;44.65;;;1.30;99.90;;;;;;7368245;19;20028;-59
2023/12/06 03:21:03;;;;;;;77.90;45.17;;;1.20;99.90;;;;;;7369674;19;20101;-59
2023/12/06 03:23:29;;;;;;;79.25;43.70;;;1.20;99.90;;;;;;7373107;19;20101;-59
2023/12/06 03:25:55;;;;;;;72.65;45.38;;;1.20;99.90;;;;;;7374094;19;20465;-59
2023/12/06 03:28:23;;;;;;;82.63;44.92;;;1.20;99.90;;;;;;7374849;19;20022;-59
2023/12/06 03:30:49;;;;;;;77.47;45.55;;;1.20;99.90;;;;;;7369428;19;20015;-60
2023/12/06 03:33:15;;;;;;;75.78;43.60;;;1.10;99.90;;;;;;7371647;19;20022;-59
2023/12/06 03:35:42;;;;;;;80.95;46.65;;;1.20;99.90;;;;;;7361997;19;20019;-59
2023/12/06 03:38:10;;;;;;;70.68;42.50;;;1.10;99.90;;;;;;7374543;19;20018;-60
2023/12/06 03:40:56;;;;;;;75.38;46.05;;;1.10;99.90;;;;;;7372197;19;20021;-60
2023/12/06 03:43:23;;;;;;;70.22;41.95;;;1.10;99.90;;;;;;7368641;19;20035;-63
2023/12/06 03:45:49;;;;;;;70.97;43.65;;;1.10;99.90;;;;;;7372902;19;20590;-58
2023/12/06 03:48:15;;;;;;;75.22;44.60;;;1.10;99.90;;;;;;7375099;19;20042;-61
2023/12/06 03:50:44;;;;;;;75.03;44.85;;;1.10;99.90;;;;;;7372653;19;20083;-61
2023/12/06 03:53:12;;;;;;;69.22;43.10;;;1.10;99.90;;;;;;7368946;19;20019;-62
2023/12/06 03:55:38;;;;;;;70.50;42.88;;;1.20;99.90;;;;;;7381922;19;21083;-61
2023/12/06 03:58:05;;;;;;;75.50;44.72;;;1.10;99.90;;;;;;7379634;19;20866;-61
2023/12/06 04:00:31;;;;;;;71.53;42.97;;;1.20;99.90;;;;;;7375877;19;20457;-60
2023/12/06 04:02:58;;;;;;;74.80;43.92;;;1.20;99.90;;;;;;7380065;19;20022;-59
2023/12/06 04:05:24;;;;;;;71.95;42.92;;;1.20;99.90;;;;;;7377457;19;20018;-61
2023/12/06 04:07:51;;;;;;;69.85;43.05;;;1.20;99.90;;;;;;7380439;19;20842;-61
2023/12/06 04:10:17;;;;;;;70.13;42.10;;;1.20;99.90;;;;;;7378949;19;20022;-62
2023/12/06 04:12:43;;;;;;;70.15;43.85;;;1.20;99.90;;;;;;7381519;19;20505;-61
2023/12/06 04:15:11;;;;;;;68.43;41.45;;;1.20;99.90;;;;;;7376558;19;20043;-61
2023/12/06 04:17:38;;;;;;;74.88;44.70;;;1.20;99.90;;;;;;7371763;19;20042;-61
2023/12/06 04:20:05;;;;;;;69.03;45.38;;;1.20;99.90;;;;;;7377196;19;20774;-61
2023/12/06 04:22:31;;;;;;;71.65;42.60;;;1.30;99.90;;;;;;7376457;19;20023;-61
2023/12/06 04:24:57;;;;;;;69.90;43.00;;;1.30;99.90;;;;;;7378276;19;20018;-61
2023/12/06 04:27:24;;;;;;;73.22;42.72;;;1.30;99.90;;;;;;7378015;19;20055;-61
2023/12/06 04:29:50;;;;;;;72.13;42.83;;;1.30;99.90;;;;;;7374811;19;20018;-61
2023/12/06 04:32:16;;;;;;;66.13;40.90;;;1.30;99.90;;;;;;7376412;19;20085;-61
2023/12/06 04:35:04;;;;;;;66.43;41.75;;;1.30;99.90;;;;;;7376554;19;20022;-61
2023/12/06 04:37:51;;;;;;;64.03;39.45;;;1.30;99.90;;;;;;7369790;19;21255;-61
2023/12/06 04:40:17;;;;;;;65.60;42.65;;;1.30;99.90;;;;;;7373564;19;20018;-61
2023/12/06 04:42:43;;;;;;;68.88;44.10;;;1.20;99.90;;;;;;7372201;19;20022;-61
2023/12/06 04:45:09;;;;;;;58.72;39.78;;;1.30;99.90;;;;;;7375753;19;20019;-61
2023/12/06 04:47:35;;;;;;;60.67;39.90;;;1.30;99.90;;;;;;7377163;19;20026;-61
2023/12/06 04:50:03;;;;;;;63.22;39.72;;;1.30;99.90;;;;;;7368822;19;20023;-61
2023/12/06 04:52:52;;;;;;;65.07;43.05;;;1.30;99.90;;;;;;7374543;19;20027;-60
2023/12/06 04:55:19;;;;;;;57.95;40.28;;;1.30;99.90;;;;;;7375165;19;20085;-61
2023/12/06 04:57:45;;;;;;;60.08;41.25;;;1.30;99.90;;;;;;7374878;19;20028;-61
2023/12/06 05:00:14;;;;;;;64.00;40.85;;;1.30;99.90;;;;;;7374024;19;20077;-61
2023/12/06 05:02:42;;;;;;;60.25;39.85;;;1.30;99.90;;;;;;7372767;19;20070;-61
2023/12/06 05:05:08;;;;;;;60.00;38.45;;;1.40;99.90;;;;;;7373759;19;20022;-61
2023/12/06 05:07:34;;;;;;;54.78;37.58;;;1.40;99.90;;;;;;7376839;19;20111;-61
2023/12/06 05:10:03;;;;;;;58.28;37.75;;;1.40;99.90;;;;;;7374981;19;20034;-61
2023/12/06 05:12:29;;;;;;;57.63;38.08;;;1.40;99.90;;;;;;7376936;19;20117;-60
2023/12/06 05:14:55;;;;;;;57.78;39.10;;;1.40;99.90;;;;;;7376636;19;20076;-60
2023/12/06 05:17:22;;;;;;;59.17;39.03;;;1.40;99.90;;;;;;7373499;19;20470;-60
2023/12/06 05:19:48;;;;;;;60.45;39.63;;;1.40;99.90;;;;;;7374760;19;20056;-61
2023/12/06 05:22:14;;;;;;;57.50;38.42;;;1.40;99.90;;;;;;7375540;19;20653;-61
2023/12/06 05:24:41;;;;;;;52.22;36.30;;;1.40;99.90;;;;;;7374291;19;20057;-61
2023/12/06 05:27:08;;;;;;;57.95;37.92;;;1.40;99.90;;;;;;7371176;19;20026;-61
2023/12/06 05:29:34;;;;;;;55.53;36.65;;;1.40;99.90;;;;;;7371560;19;20022;-60
2023/12/06 05:32:00;;;;;;;57.08;37.92;;;1.40;99.90;;;;;;7374880;19;20044;-58
2023/12/06 05:34:26;;;;;;;50.90;35.58;;;1.40;99.90;;;;;;7373265;19;20630;-58
2023/12/06 05:36:53;;;;;;;54.72;35.08;;;1.40;99.90;;;;;;7369546;19;20138;-58
2023/12/06 05:39:19;;;;;;;56.13;36.65;;;1.40;99.90;;;;;;7368201;19;20018;-59
2023/12/06 05:41:45;;;;;;;50.00;35.35;;;1.50;99.90;;;;;;7371157;19;20030;-61
2023/12/06 05:44:14;;;;;;;51.25;34.80;;;1.50;99.90;;;;;;7371862;19;20037;-61
2023/12/06 05:46:40;;;;;;;50.00;35.80;;;1.50;99.90;;;;;;7373951;19;20014;-61
2023/12/06 05:49:08;;;;;;;51.05;36.17;;;1.50;99.90;;;;;;7372549;19;20015;-58
2023/12/06 05:51:34;;;;;;;49.35;34.75;;;1.50;99.90;;;;;;7376049;19;20022;-59
2023/12/06 05:54:01;;;;;;;52.92;34.78;;;1.50;99.90;;;;;;7371177;19;20014;-59
2023/12/06 05:56:47;;;;;;;49.50;34.13;;;1.50;99.90;;;;;;7369628;19;20106;-58
2023/12/06 05:59:33;;;;;;;48.17;33.70;;;1.50;99.90;;;;;;7370393;19;20038;-58
2023/12/06 06:01:59;;;;;;;47.17;33.88;;;1.50;99.90;;;;;;7370241;19;20080;-60
2023/12/06 06:04:26;;;;;;;53.15;36.08;;;1.60;99.90;;;;;;7372337;19;20778;-59
2023/12/06 06:06:55;;;;;;;48.88;34.78;;;1.60;99.90;;;;;;7373135;19;20495;-59
2023/12/06 06:09:21;;;;;;;48.72;33.95;;;1.60;99.90;;;;;;7370756;19;20097;-58
2023/12/06 06:11:49;;;;;;;50.05;35.40;;;1.60;99.90;;;;;;7374545;19;20042;-59
2023/12/06 06:14:15;;;;;;;47.42;35.30;;;1.60;99.90;;;;;;7371238;19;20025;-60
2023/12/06 06:16:42;;;;;;;50.70;35.20;;;1.60;99.90;;;;;;7371831;19;20022;-58
2023/12/06 06:19:08;;;;;;;48.45;35.17;;;1.50;99.90;;;;;;7371753;19;20059;-58
2023/12/06 06:21:34;;;;;;;48.38;34.28;;;1.60;99.90;;;;;;7375218;19;20074;-58
2023/12/06 06:24:00;;;;;;;49.33;35.22;;;1.60;99.90;;;;;;7373664;19;20014;-58
2023/12/06 06:26:26;;;;;;;55.30;36.10;;;1.60;99.90;;;;;;7375065;19;20022;-58
2023/12/06 06:28:52;;;;;;;51.88;36.30;;;1.60;99.90;;;;;;7372423;19;20086;-59
2023/12/06 06:31:19;;;;;;;51.53;35.05;;;1.70;99.90;;;;;;7373335;19;20474;-59
2023/12/06 06:33:45;;;;;;;48.10;35.67;;;1.70;99.90;;;;;;7369681;19;20019;-57
2023/12/06 06:36:11;;;;;;;56.38;37.97;;;1.70;99.90;;;;;;7372386;19;20493;-58
2023/12/06 06:38:38;;;;;;;49.05;36.10;;;1.70;99.90;;;;;;7368226;19;20042;-59
2023/12/06 06:41:04;;;;;;;55.72;36.90;;;1.70;99.90;;;;;;7375841;19;20035;-58
2023/12/06 06:43:30;;;;;;;53.45;37.63;;;1.70;99.90;;;;;;7368540;19;20381;-61
2023/12/06 06:45:56;;;;;;;55.08;38.42;;;1.70;99.90;;;;;;7370252;19;20078;-58
2023/12/06 06:48:22;;;;;;;53.97;37.67;;;1.70;99.90;;;;;;7371721;19;20477;-58
2023/12/06 06:50:49;;;;;;;57.65;37.15;;;1.70;99.90;;;;;;7371521;19;20010;-58
2023/12/06 06:53:35;;;;;;;56.20;38.03;;;1.80;99.90;;;;;;7370071;19;20018;-58
2023/12/06 06:56:02;;;;;;;59.55;38.75;;;1.70;99.90;;;;;;7375165;19;20514;-57
2023/12/06 06:58:28;;;;;;;52.10;37.95;;;1.70;99.90;;;;;;7368792;19;20359;-57
2023/12/06 07:00:54;;;;;;;57.45;38.08;;;1.70;99.90;;;;;;7371636;19;20101;-58
2023/12/06 07:03:21;;;;;;;55.60;37.92;;;1.80;99.90;;;;;;7370076;19;20018;-57
2023/12/06 07:05:47;;;;;;;55.83;38.25;;;1.70;99.90;;;;;;7372924;19;20011;-57
2023/12/06 07:08:13;;;;;;;55.90;38.65;;;1.80;99.90;;;;;;7373752;19;20015;-57
2023/12/06 07:10:39;;;;;;;59.20;39.03;;;1.80;99.90;;;;;;7374011;19;20030;-58
2023/12/06 07:13:06;;;;;;;53.90;37.50;;;1.80;99.90;;;;;;7370919;19;20039;-57
2023/12/06 07:15:32;;;;;;;52.67;36.35;;;1.80;99.90;;;;;;7374791;19;20019;-59
2023/12/06 07:17:59;;;;;;;56.25;37.92;;;1.80;99.90;;;;;;7372210;19;20019;-60
2023/12/06 07:20:25;;;;;;;55.20;37.28;;;1.80;99.90;;;;;;7370797;19;20014;-59
2023/12/06 07:22:51;;;;;;;56.17;38.58;;;1.80;99.90;;;;;;7371777;19;20519;-59
2023/12/06 07:25:17;;;;;;;54.30;36.30;;;1.80;99.90;;;;;;7371916;19;20018;-59
2023/12/06 07:27:46;;;;;;;59.10;37.10;;;1.90;99.90;;;;;;7377051;19;20825;-61
2023/12/06 07:30:18;;;;;;;52.97;39.55;;;1.90;99.90;;;;;;7379029;19;20048;-59
2023/12/06 07:32:45;;;;;;;;;;;1.90;99.90;;;;;;7379301;19;20629;-59
2023/12/06 07:35:12;;;;;;;52.95;34.90;;;1.90;99.90;;;;;;7377861;19;19926;-59
2023/12/06 07:37:38;;;;;;;54.40;36.88;;;1.90;99.90;;;;;;7375561;19;20044;-60
2023/12/06 07:40:09;;;;;;;55.75;38.03;;;1.90;99.90;;;;;;7378741;19;20015;-59
2023/12/06 07:42:35;;;;;;;56.40;38.47;;;1.90;99.90;;;;;;7378017;19;20054;-61
2023/12/06 07:45:01;;;;;;;52.72;36.55;;;1.90;99.90;;;;;;7379957;19;20018;-62
2023/12/06 07:47:29;;;;;;;53.30;37.38;;;2.00;99.90;;;;;;7377234;19;20412;-63
2023/12/06 07:49:55;;;;;;;50.85;36.55;;;1.90;99.90;;;;;;7378645;19;20015;-61
2023/12/06 07:52:21;;;;;;;50.97;35.67;;;2.00;99.90;;;;;;7376569;19;20129;-59
2023/12/06 07:54:48;;;;;;;47.50;35.65;;;2.00;99.90;;;;;;7373511;19;20033;-59
2023/12/06 07:57:14;;;;;;;56.17;35.28;;;2.00;99.90;;;;;;7377171;19;20042;-59
2023/12/06 07:59:43;;;;;;;49.58;36.25;;;2.00;99.90;;;;;;7376129;19;20629;-62
2023/12/06 08:02:09;;;;;;;56.50;36.88;;;2.00;99.90;;;;;;7379787;19;20443;-62
2023/12/06 08:04:35;;;;;;;49.40;36.67;;;2.10;99.90;;;;;;7376693;19;20015;-59
2023/12/06 08:07:02;;;;;;;50.78;37.00;;;2.10;99.90;;;;;;7378842;19;20805;-60
2023/12/06 08:09:29;;;;;;;47.63;35.53;;;2.10;99.90;;;;;;7378145;19;20018;-60
2023/12/06 08:11:56;;;;;;;44.30;35.03;;;2.10;99.90;;;;;;7376857;19;20658;-60
2023/12/06 08:14:23;;;;;;;49.65;36.20;;;2.10;99.90;;;;;;7376049;19;20104;-60
2023/12/06 08:16:50;;;;;;;49.35;36.08;;;2.10;99.90;;;;;;7373850;19;20007;-60
2023/12/06 08:19:16;;;;;;;47.25;34.25;;;2.20;99.90;;;;;;7380307;19;20019;-58
2023/12/06 08:21:42;;;;;;;44.67;33.85;;;2.30;99.90;;;;;;7377866;19;20014;-61
2023/12/06 08:24:29;;;;;;;53.88;35.63;;;2.10;99.90;;;;;;7375206;19;20078;-60
2023/12/06 08:26:55;;;;;;;47.83;34.72;;;2.20;99.90;;;;;;7377892;19;20015;-60
2023/12/06 08:29:22;;;;;;;45.35;33.42;;;2.20;99.90;;;;;;7376211;19;20025;-60
2023/12/06 08:31:48;;;;;;;45.25;33.63;;;2.30;99.90;;;;;;7378542;19;20014;-58
2023/12/06 08:34:15;;;;;;;44.90;33.85;;;2.20;99.90;;;;;;7379066;19;20018;-58
2023/12/06 08:36:41;;;;;;;46.55;33.80;;;2.20;99.90;;;;;;7375066;19;20021;-58
2023/12/06 08:39:28;;;;;;;44.55;33.88;;;2.30;99.90;;;;;;7372841;19;20628;-61
2023/12/06 08:41:54;;;;;;;42.05;32.35;;;2.30;99.90;;;;;;7377980;19;20014;-58
2023/12/06 08:44:20;;;;;;;44.67;33.00;;;2.30;99.90;;;;;;7369340;19;20119;-58
2023/12/06 08:46:46;;;;;;;43.30;32.83;;;2.30;99.90;;;;;;7376949;19;20854;-60
2023/12/06 08:49:13;;;;;;;44.75;33.50;;;2.30;99.90;;;;;;7378671;19;20022;-60
2023/12/06 08:51:39;;;;;;;44.60;34.38;;;2.30;99.90;;;;;;7377504;19;20049;-60
2023/12/06 08:54:06;;;;;;;42.10;32.75;;;2.30;99.90;;;;;;7379760;19;20014;-60
2023/12/06 08:56:32;;;;;;;44.60;32.28;;;2.40;99.90;;;;;;7375216;19;20013;-60
2023/12/06 08:58:58;;;;;;;40.45;31.13;;;2.40;99.90;;;;;;7378367;19;20006;-60
2023/12/06 09:01:24;;;;;;;47.90;32.33;;;2.40;99.90;;;;;;7375839;19;20022;-60
2023/12/06 09:03:50;;;;;;;42.97;31.85;;;2.40;99.90;;;;;;7376631;19;20762;-61
2023/12/06 09:06:17;;;;;;;43.90;30.83;;;2.40;99.90;;;;;;7379104;19;20649;-60
2023/12/06 09:08:43;;;;;;;42.72;31.40;;;2.50;99.90;;;;;;7375004;19;20011;-60
2023/12/06 09:11:09;;;;;;;38.15;31.95;;;2.50;99.90;;;;;;7377824;19;20022;-60
2023/12/06 09:13:36;;;;;;;40.42;31.83;;;2.50;99.90;;;;;;7369515;19;20817;-60
2023/12/06 09:16:03;;;;;;;41.20;32.20;;;2.60;99.90;;;;;;7376984;19;20082;-60
2023/12/06 09:18:29;;;;;;;47.33;32.15;;;2.60;99.90;;;;;;7378574;19;20492;-60
2023/12/06 09:20:55;;;;;;;41.92;32.85;;;2.60;99.90;;;;;;7373308;19;20022;-60
2023/12/06 09:23:21;;;;;;;40.60;30.80;;;2.60;99.90;;;;;;7376898;19;20054;-60
2023/12/06 09:25:47;;;;;;;38.25;30.60;;;2.60;99.90;;;;;;7373993;19;20029;-60
2023/12/06 09:28:14;;;;;;;38.92;30.95;;;2.60;99.90;;;;;;7378211;19;20014;-60
2023/12/06 09:30:40;;;;;;;40.35;30.58;;;2.60;99.90;;;;;;7373716;19;20018;-60
2023/12/06 09:33:07;;;;;;;38.13;29.75;;;2.70;99.90;;;;;;7365980;19;20682;-58
2023/12/06 09:35:33;;;;;;;40.53;30.88;;;2.70;99.90;;;;;;7366218;19;20086;-58
2023/12/06 09:38:00;;;;;;;39.58;30.20;;;2.70;99.90;;;;;;7372026;19;20053;-61
2023/12/06 09:40:26;;;;;;;39.45;29.17;;;2.70;99.90;;;;;;7368654;19;20039;-59
2023/12/06 09:42:57;;;;;;;45.67;30.42;;;2.70;99.90;;;;;;7373582;19;20023;-58
2023/12/06 09:45:24;;;;;;;39.72;32.08;;;2.70;99.90;;;;;;7367944;19;20609;-58
2023/12/06 09:47:52;;;;;;;40.03;30.25;;;2.70;99.90;;;;;;7372342;19;20386;-58
2023/12/06 09:50:18;;;;;;;47.70;34.03;;;2.80;99.90;;;;;;7371738;19;20068;-58
2023/12/06 09:52:44;;;;;;;41.63;30.85;;;2.80;99.90;;;;;;7370242;19;20837;-58
2023/12/06 09:55:11;;;;;;;42.97;33.00;;;2.80;99.90;;;;;;7373816;19;20833;-58
2023/12/06 09:57:38;;;;;;;34.25;29.88;;;2.80;99.90;;;;;;7371120;19;20093;-58
2023/12/06 10:00:05;;;;;;;37.47;30.75;;;2.80;99.90;;;;;;7371908;19;20834;-58
2023/12/06 10:02:51;;;;;;;37.20;28.95;;;2.70;99.90;;;;;;7373963;19;20077;-58
2023/12/06 10:05:17;;;;;;;39.80;29.60;;;2.80;99.90;;;;;;7369292;19;20021;-58
2023/12/06 10:07:44;;;;;;;37.22;28.08;;;2.80;99.90;;;;;;7374184;19;20039;-58
2023/12/06 10:10:30;;;;;;;39.17;27.58;;;2.90;99.90;;;;;;7371641;19;20018;-58
2023/12/06 10:12:56;;;;;;;37.78;28.80;;;2.90;99.90;;;;;;7372026;19;20412;-58
2023/12/06 10:15:23;;;;;;;32.55;26.65;;;2.80;99.90;;;;;;7370981;19;20022;-58
2023/12/06 10:17:51;;;;;;;35.72;27.52;;;2.80;99.90;;;;;;7372481;19;20750;-58
2023/12/06 10:20:22;;;;;;;36.33;29.00;;;2.90;99.90;;;;;;7376023;19;20053;-58
2023/12/06 10:22:50;;;;;;;34.47;27.73;;;2.90;99.90;;;;;;7375193;19;20115;-58
2023/12/06 10:25:16;;;;;;;36.88;28.30;;;2.90;99.90;;;;;;7375039;19;20022;-60
2023/12/06 10:27:45;;;;;;;37.05;28.05;;;2.90;99.90;;;;;;7367399;19;20010;-58
2023/12/06 10:30:20;;;;;;;39.15;27.75;;;2.90;99.90;;;;;;7374509;19;20022;-58
2023/12/06 10:32:48;;;;;;;33.45;27.52;;;3.00;99.90;;;;;;7371788;19;20014;-58
2023/12/06 10:35:15;;;;;;;34.17;27.75;;;2.90;99.90;;;;;;7373296;19;20010;-57
2023/12/06 10:37:42;;;;;;;33.42;27.50;;;2.90;99.90;;;;;;7370287;19;20930;-58
2023/12/06 10:40:10;;;;;;;32.83;27.40;;;3.00;99.90;;;;;;7369182;19;20466;-57
2023/12/06 10:42:40;;;;;;;33.90;27.52;;;3.00;99.90;;;;;;7369661;19;20085;-58
2023/12/06 10:45:07;;;;;;;37.33;26.95;;;3.00;99.90;;;;;;7370565;19;20019;-58
2023/12/06 10:47:34;;;;;;;35.47;28.33;;;3.10;99.90;;;;;;7370007;19;20074;-57
2023/12/06 10:50:23;;;;;;;38.78;28.02;;;3.10;99.90;;;;;;7371730;19;20022;-58
2023/12/06 10:52:54;;;;;;;34.30;26.20;;;3.10;99.90;;;;;;7372627;19;20010;-58
2023/12/06 10:55:23;;;;;;;34.95;26.55;;;3.20;99.90;;;;;;7367057;19;20018;-58
2023/12/06 10:57:52;;;;;;;35.17;26.92;;;3.20;99.90;;;;;;7371130;19;20014;-58
2023/12/06 11:00:39;;;;;;;34.03;26.92;;;3.20;99.90;;;;;;7370293;19;20049;-57
2023/12/06 11:03:05;;;;;;;32.90;26.17;;;3.20;99.90;;;;;;7361513;19;20014;-58
2023/12/06 11:05:39;;;;;;;37.80;27.90;;;3.30;99.90;;;;;;7367238;19;20019;-58
2023/12/06 11:08:39;;;;;;;31.80;26.02;;;3.30;99.90;;;;;;7373429;19;20018;-58
2023/12/06 11:11:09;;;;;;;31.92;26.17;;;3.30;99.90;;;;;;7373435;19;20026;-58
2023/12/06 11:14:02;;;;;;;32.95;25.42;;;3.30;99.90;;;;;;7366417;19;20015;-58
2023/12/06 11:16:51;;;;;;;32.08;26.92;;;3.30;99.90;;;;;;7354451;19;20415;-58
2023/12/06 11:19:20;;;;;;;36.33;29.08;;;3.30;99.90;;;;;;7366940;19;20052;-60
2023/12/06 11:21:47;;;;;;;32.90;25.83;;;3.30;99.90;;;;;;7361655;19;20502;-57
2023/12/06 11:24:15;;;;;;;33.38;24.98;;;3.30;99.90;;;;;;7373996;19;20018;-57
2023/12/06 11:26:41;;;;;;;29.77;24.98;;;3.30;99.90;;;;;;7356497;19;20053;-58
2023/12/06 11:29:08;;;;;;;30.90;25.42;;;3.30;99.90;;;;;;7367110;19;20026;-57
2023/12/06 11:31:37;;;;;;;31.88;25.50;;;3.30;99.90;;;;;;7361260;19;20060;-58
2023/12/06 11:34:09;;;;;;;31.55;25.15;;;3.30;99.90;;;;;;7366006;19;20117;-58
2023/12/06 11:36:39;;;;;;;32.08;27.30;;;3.40;99.90;;;;;;7356717;19;20025;-58
2023/12/06 11:39:18;;;;;;;34.75;25.52;;;3.40;99.90;;;;;;7364282;19;20023;-58
2023/12/06 11:41:55;;;;;;;31.15;25.40;;;3.40;99.90;;;;;;7367897;19;20079;-60
2023/12/06 11:44:21;;;;;;;34.33;25.13;;;3.40;99.90;;;;;;7364817;19;20072;-60
2023/12/06 11:46:52;;;;;;;27.85;24.05;;;3.40;99.90;;;;;;7370091;19;20030;-60
2023/12/06 11:49:23;;;;;;;28.73;24.23;;;3.50;99.90;;;;;;7370193;19;20014;-60
2023/12/06 11:51:59;;;;;;;27.87;24.60;;;3.50;99.90;;;;;;7366138;19;20015;-61
2023/12/06 11:54:32;;;;;;;30.58;24.92;;;3.50;99.90;;;;;;7364012;19;20019;-61
2023/12/06 11:57:06;;;;;;;31.80;24.35;;;3.50;99.90;;;;;;7370099;19;20549;-60
2023/12/06 11:59:33;;;;;;;27.98;23.13;;;3.60;99.90;;;;;;7368803;19;20019;-60
2023/12/06 12:02:00;;;;;;;27.25;23.20;;;3.60;99.90;;;;;;7371890;19;20023;-60
2023/12/06 12:04:27;;;;;;;30.55;22.33;;;3.50;99.90;;;;;;7361438;19;20039;-60
2023/12/06 12:06:54;;;;;;;27.48;23.13;;;3.60;99.90;;;;;;7367820;19;20019;-61
2023/12/06 12:09:25;;;;;;;29.13;22.80;;;3.60;99.90;;;;;;7366907;19;20684;-60
2023/12/06 12:11:52;;;;;;;28.15;22.02;;;3.50;99.90;;;;;;7367405;19;20053;-60
2023/12/06 12:14:19;;;;;;;27.60;22.20;;;3.60;99.90;;;;;;7375878;19;20038;-60
2023/12/06 12:16:45;;;;;;;27.15;21.77;;;3.50;99.90;;;;;;7373813;19;20011;-60
2023/12/06 12:19:11;;;;;;;23.45;20.80;;;3.50;99.90;;;;;;7372023;19;20556;-60
2023/12/06 12:21:38;;;;;;;26.77;22.02;;;3.50;99.90;;;;;;7377604;19;20106;-60
2023/12/06 12:24:05;;;;;;;28.98;22.45;;;3.60;99.90;;;;;;7374945;19;20162;-60
2023/12/06 12:26:32;;;;;;;25.23;21.70;;;3.60;99.90;;;;;;7375708;19;20094;-60
2023/12/06 12:29:00;;;;;;;27.38;22.23;;;3.60;99.90;;;;;;7374455;19;20030;-60
2023/12/06 12:31:31;;;;;;;27.42;20.88;;;3.60;99.90;;;;;;7375160;19;20018;-60
2023/12/06 12:33:58;;;;;;;26.35;21.33;;;3.60;99.90;;;;;;7377636;19;20022;-61
2023/12/06 12:36:26;;;;;;;27.95;22.88;;;3.60;99.90;;;;;;7374529;19;20024;-61
2023/12/06 12:38:52;;;;;;;25.35;22.27;;;3.60;99.90;;;;;;7375262;19;20015;-60
2023/12/06 12:41:19;;;;;;;25.98;20.15;;;3.60;99.90;;;;;;7378278;19;20019;-60
2023/12/06 12:43:46;;;;;;;29.73;23.25;;;3.60;99.90;;;;;;7368323;19;20018;-60